sensor_id;sensor_type;location;lat;lon;timestamp;temperature;humidity
44359;DHT22;30077;52.474;13.326;2024-02-26T00:03:41;4.80;99.90
44359;DHT22;30077;52.474;13.326;2024-02-26T00:13:42;4.80;99.90
44359;DHT22;30077;52.474;13.326;2024-02-26T00:23:43;4.70;99.90
44359;DHT22;30077;52.474;13.326;2024-02-26T00:33:44;4.80;99.90
44359;DHT22;30077;52.474;13.326;2024-02-26T00:43:44;4.80;99.90
44359;DHT22;30077;52.474;13.326;2024-02-26T00:53:45;4.80;99.90
44359;DHT22;30077;52.474;13.326;2024-02-26T01:03:46;4.70;99.90
44359;DHT22;30077;52.474;13.326;2024-02-26T01:13:46;4.60;99.90
44359;DHT22;30077;52.474;13.326;2024-02-26T01:23:47;4.60;99.90
44359;DHT22;30077;52.474;13.326;2024-02-26T01:33:48;4.40;99.90
44359;DHT22;30077;52.474;13.326;2024-02-26T01:43:48;4.40;99.90
44359;DHT22;30077;52.474;13.326;2024-02-26T01:53:49;4.40;99.90
44359;DHT22;30077;52.474;13.326;2024-02-26T02:03:50;4.30;99.90
44359;DHT22;30077;52.474;13.326;2024-02-26T02:13:50;4.30;99.90
44359;DHT22;30077;52.474;13.326;2024-02-26T02:23:51;4.30;99.90
44359;DHT22;30077;52.474;13.326;2024-02-26T02:33:52;4.10;99.90
44359;DHT22;30077;52.474;13.326;2024-02-26T02:43:52;4.10;99.90
44359;DHT22;30077;52.474;13.326;2024-02-26T02:53:53;4.20;99.90
44359;DHT22;30077;52.474;13.326;2024-02-26T03:03:54;4.10;99.90
44359;DHT22;30077;52.474;13.326;2024-02-26T03:13:55;4.10;99.90
44359;DHT22;30077;52.474;13.326;2024-02-26T03:23:56;4.00;99.90
44359;DHT22;30077;52.474;13.326;2024-02-26T03:33:58;3.80;99.90
44359;DHT22;30077;52.474;13.326;2024-02-26T03:43:59;3.80;99.90
44359;DHT22;30077;52.474;13.326;2024-02-26T03:54:00;3.60;99.90
44359;DHT22;30077;52.474;13.326;2024-02-26T04:04:01;3.60;99.90
44359;DHT22;30077;52.474;13.326;2024-02-26T04:14:02;3.60;99.90
44359;DHT22;30077;52.474;13.326;2024-02-26T04:24:03;3.60;99.90
44359;DHT22;30077;52.474;13.326;2024-02-26T04:34:04;3.60;99.90
44359;DHT22;30077;52.474;13.326;2024-02-26T04:44:05;3.60;99.90
44359;DHT22;30077;52.474;13.326;2024-02-26T04:54:06;3.50;99.90
44359;DHT22;30077;52.474;13.326;2024-02-26T05:04:06;3.60;99.90
44359;DHT22;30077;52.474;13.326;2024-02-26T05:14:08;3.60;99.90
44359;DHT22;30077;52.474;13.326;2024-02-26T05:24:08;3.60;99.90
44359;DHT22;30077;52.474;13.326;2024-02-26T05:34:09;3.60;99.90
44359;DHT22;30077;52.474;13.326;2024-02-26T05:44:11;3.60;99.90
44359;DHT22;30077;52.474;13.326;2024-02-26T05:54:12;3.60;99.90
44359;DHT22;30077;52.474;13.326;2024-02-26T06:04:13;3.70;99.90
44359;DHT22;30077;52.474;13.326;2024-02-26T06:14:13;3.70;99.90
44359;DHT22;30077;52.474;13.326;2024-02-26T06:24:18;3.80;99.90
44359;DHT22;30077;52.474;13.326;2024-02-26T06:34:21;3.90;99.90
44359;DHT22;30077;52.474;13.326;2024-02-26T06:44:21;4.10;99.90
44359;DHT22;30077;52.474;13.326;2024-02-26T06:54:22;4.40;99.90
44359;DHT22;30077;52.474;13.326;2024-02-26T07:04:23;4.60;99.90
44359;DHT22;30077;52.474;13.326;2024-02-26T07:14:24;4.70;99.90
44359;DHT22;30077;52.474;13.326;2024-02-26T07:24:25;4.70;99.90
44359;DHT22;30077;52.474;13.326;2024-02-26T07:34:25;4.80;99.90
44359;DHT22;30077;52.474;13.326;2024-02-26T07:44:29;4.90;99.90
44359;DHT22;30077;52.474;13.326;2024-02-26T07:54:29;5.10;99.90
44359;DHT22;30077;52.474;13.326;2024-02-26T08:04:30;5.50;99.90
44359;DHT22;30077;52.474;13.326;2024-02-26T08:14:31;5.50;99.90
44359;DHT22;30077;52.474;13.326;2024-02-26T08:24:33;5.90;99.90
44359;DHT22;30077;52.474;13.326;2024-02-26T08:34:33;6.20;99.90
44359;DHT22;30077;52.474;13.326;2024-02-26T08:44:34;6.80;99.90
44359;DHT22;30077;52.474;13.326;2024-02-26T08:54:34;6.90;99.90
44359;DHT22;30077;52.474;13.326;2024-02-26T09:04:35;7.10;99.90
44359;DHT22;30077;52.474;13.326;2024-02-26T09:14:36;7.90;99.90
44359;DHT22;30077;52.474;13.326;2024-02-26T09:24:36;8.50;99.90
44359;DHT22;30077;52.474;13.326;2024-02-26T09:34:40;8.50;99.90
44359;DHT22;30077;52.474;13.326;2024-02-26T09:44:43;8.30;99.90
44359;DHT22;30077;52.474;13.326;2024-02-26T09:54:47;8.40;99.90
44359;DHT22;30077;52.474;13.326;2024-02-26T10:04:48;8.80;99.90
44359;DHT22;30077;52.474;13.326;2024-02-26T10:14:51;9.00;99.90
44359;DHT22;30077;52.474;13.326;2024-02-26T10:24:54;9.60;99.90
44359;DHT22;30077;52.474;13.326;2024-02-26T10:34:58;9.90;99.90
44359;DHT22;30077;52.474;13.326;2024-02-26T10:44:58;10.00;99.90
44359;DHT22;30077;52.474;13.326;2024-02-26T10:55:05;10.30;99.90
44359;DHT22;30077;52.474;13.326;2024-02-26T11:05:11;10.00;99.90
44359;DHT22;30077;52.474;13.326;2024-02-26T11:15:12;10.30;99.90
44359;DHT22;30077;52.474;13.326;2024-02-26T11:25:13;10.50;99.90
44359;DHT22;30077;52.474;13.326;2024-02-26T11:35:14;10.90;99.90
44359;DHT22;30077;52.474;13.326;2024-02-26T11:55:39;10.80;99.90
44359;DHT22;30077;52.474;13.326;2024-02-26T12:05:41;11.00;99.90
44359;DHT22;30077;52.474;13.326;2024-02-26T12:15:54;11.20;99.90
44359;DHT22;30077;52.474;13.326;2024-02-26T12:26:00;11.00;99.90
44359;DHT22;30077;52.474;13.326;2024-02-26T12:36:01;11.60;99.90
44359;DHT22;30077;52.474;13.326;2024-02-26T12:46:03;11.50;99.90
44359;DHT22;30077;52.474;13.326;2024-02-26T12:56:06;11.80;99.90
44359;DHT22;30077;52.474;13.326;2024-02-26T13:06:08;11.60;99.90
44359;DHT22;30077;52.474;13.326;2024-02-26T13:16:14;11.70;99.90
44359;DHT22;30077;52.474;13.326;2024-02-26T13:26:15;11.50;99.90
44359;DHT22;30077;52.474;13.326;2024-02-26T13:36:16;11.70;99.90
44359;DHT22;30077;52.474;13.326;2024-02-26T13:46:17;11.50;99.90
44359;DHT22;30077;52.474;13.326;2024-02-26T13:56:18;11.60;99.90
44359;DHT22;30077;52.474;13.326;2024-02-26T14:06:23;11.50;99.90
44359;DHT22;30077;52.474;13.326;2024-02-26T14:16:24;11.50;99.90
44359;DHT22;30077;52.474;13.326;2024-02-26T14:26:24;11.50;99.90
44359;DHT22;30077;52.474;13.326;2024-02-26T14:36:25;11.30;99.90
44359;DHT22;30077;52.474;13.326;2024-02-26T14:46:26;11.20;99.90
44359;DHT22;30077;52.474;13.326;2024-02-26T14:56:27;11.20;99.90
44359;DHT22;30077;52.474;13.326;2024-02-26T15:06:28;11.00;99.90
44359;DHT22;30077;52.474;13.326;2024-02-26T15:16:29;10.90;99.90
44359;DHT22;30077;52.474;13.326;2024-02-26T15:26:30;10.90;99.90
44359;DHT22;30077;52.474;13.326;2024-02-26T15:36:31;10.80;99.90
44359;DHT22;30077;52.474;13.326;2024-02-26T15:46:32;10.60;99.90
44359;DHT22;30077;52.474;13.326;2024-02-26T15:56:32;10.50;99.90
44359;DHT22;30077;52.474;13.326;2024-02-26T16:06:41;10.40;99.90
44359;DHT22;30077;52.474;13.326;2024-02-26T16:16:52;10.30;99.90
44359;DHT22;30077;52.474;13.326;2024-02-26T16:26:57;10.30;99.90
44359;DHT22;30077;52.474;13.326;2024-02-26T16:36:57;10.20;99.90
44359;DHT22;30077;52.474;13.326;2024-02-26T16:46:58;10.10;99.90
44359;DHT22;30077;52.474;13.326;2024-02-26T16:56:59;9.90;99.90
44359;DHT22;30077;52.474;13.326;2024-02-26T17:07:00;9.90;99.90
44359;DHT22;30077;52.474;13.326;2024-02-26T17:17:01;9.90;99.90
44359;DHT22;30077;52.474;13.326;2024-02-26T17:27:04;9.80;99.90
44359;DHT22;30077;52.474;13.326;2024-02-26T17:37:04;9.70;99.90
44359;DHT22;30077;52.474;13.326;2024-02-26T17:47:06;9.60;99.90
44359;DHT22;30077;52.474;13.326;2024-02-26T17:57:06;9.50;99.90
44359;DHT22;30077;52.474;13.326;2024-02-26T18:07:07;9.40;99.90
44359;DHT22;30077;52.474;13.326;2024-02-26T18:17:08;9.20;99.90
44359;DHT22;30077;52.474;13.326;2024-02-26T18:27:09;9.10;99.90
44359;DHT22;30077;52.474;13.326;2024-02-26T18:37:10;9.00;99.90
44359;DHT22;30077;52.474;13.326;2024-02-26T18:47:11;8.90;99.90
44359;DHT22;30077;52.474;13.326;2024-02-26T18:57:12;8.90;99.90
44359;DHT22;30077;52.474;13.326;2024-02-26T19:07:13;9.10;99.90
44359;DHT22;30077;52.474;13.326;2024-02-26T19:17:15;8.70;99.90
44359;DHT22;30077;52.474;13.326;2024-02-26T19:27:16;8.60;99.90
44359;DHT22;30077;52.474;13.326;2024-02-26T19:37:17;8.50;99.90
44359;DHT22;30077;52.474;13.326;2024-02-26T19:47:18;8.30;99.90
44359;DHT22;30077;52.474;13.326;2024-02-26T19:57:19;8.20;99.90
44359;DHT22;30077;52.474;13.326;2024-02-26T20:07:20;8.00;99.90
44359;DHT22;30077;52.474;13.326;2024-02-26T20:17:21;7.90;99.90
44359;DHT22;30077;52.474;13.326;2024-02-26T20:27:22;7.80;99.90
44359;DHT22;30077;52.474;13.326;2024-02-26T20:37:22;7.70;99.90
44359;DHT22;30077;52.474;13.326;2024-02-26T20:47:23;7.70;99.90
44359;DHT22;30077;52.474;13.326;2024-02-26T20:57:25;7.50;99.90
44359;DHT22;30077;52.474;13.326;2024-02-26T21:07:26;7.50;99.90
44359;DHT22;30077;52.474;13.326;2024-02-26T21:17:27;7.30;99.90
44359;DHT22;30077;52.474;13.326;2024-02-26T21:27:28;7.20;99.90
44359;DHT22;30077;52.474;13.326;2024-02-26T21:37:29;7.10;99.90
44359;DHT22;30077;52.474;13.326;2024-02-26T21:47:30;7.00;99.90
44359;DHT22;30077;52.474;13.326;2024-02-26T21:57:30;6.90;99.90
44359;DHT22;30077;52.474;13.326;2024-02-26T22:07:33;6.80;99.90
44359;DHT22;30077;52.474;13.326;2024-02-26T22:17:34;6.70;99.90
44359;DHT22;30077;52.474;13.326;2024-02-26T22:27:37;6.60;99.90
44359;DHT22;30077;52.474;13.326;2024-02-26T22:37:37;6.60;99.90
44359;DHT22;30077;52.474;13.326;2024-02-26T22:47:38;6.50;99.90
44359;DHT22;30077;52.474;13.326;2024-02-26T22:57:39;6.50;99.90
44359;DHT22;30077;52.474;13.326;2024-02-26T23:07:42;6.40;99.90
44359;DHT22;30077;52.474;13.326;2024-02-26T23:17:42;6.40;99.90
44359;DHT22;30077;52.474;13.326;2024-02-26T23:27:46;6.40;99.90
44359;DHT22;30077;52.474;13.326;2024-02-26T23:37:48;6.30;99.90
44359;DHT22;30077;52.474;13.326;2024-02-26T23:47:48;6.30;99.90
44359;DHT22;30077;52.474;13.326;2024-02-26T23:57:49;6.30;99.90
